createdAt,value
2023-02-12T00:00:50.555Z,0
2023-02-12T00:02:05.874Z,0
2023-02-12T00:03:22.163Z,0
2023-02-12T00:04:38.466Z,0
2023-02-12T00:05:54.755Z,0
2023-02-12T00:07:11.060Z,0
2023-02-12T00:08:27.348Z,0
2023-02-12T00:09:43.637Z,0
2023-02-12T00:10:59.948Z,0
2023-02-12T00:12:16.240Z,0
2023-02-12T00:13:32.531Z,0
2023-02-12T00:14:48.829Z,0
2023-02-12T00:16:05.124Z,0
2023-02-12T00:17:21.413Z,0
2023-02-12T00:18:36.713Z,0
2023-02-12T00:19:53.004Z,0
2023-02-12T00:21:09.304Z,0
2023-02-12T00:22:25.592Z,0
2023-02-12T00:23:41.895Z,0
2023-02-12T00:24:58.185Z,0
2023-02-12T00:26:14.477Z,0
2023-02-12T00:27:30.779Z,0
2023-02-12T00:28:47.068Z,0
2023-02-12T00:30:03.364Z,0
2023-02-12T00:31:19.652Z,0
2023-02-12T00:32:35.952Z,0
2023-02-12T00:33:52.250Z,0
2023-02-12T00:35:07.571Z,0
2023-02-12T00:36:23.860Z,0
2023-02-12T00:37:40.158Z,0
2023-02-12T00:38:56.436Z,0
2023-02-12T00:40:12.731Z,0
2023-02-12T00:41:29.024Z,0
2023-02-12T00:42:45.333Z,0
2023-02-12T00:44:01.617Z,0
2023-02-12T00:45:17.907Z,0
2023-02-12T00:46:34.203Z,0
2023-02-12T00:47:50.508Z,0
2023-02-12T00:49:06.806Z,0
2023-02-12T00:50:23.086Z,0
2023-02-12T00:51:39.501Z,0
2023-02-12T00:52:55.793Z,0
2023-02-12T00:54:12.093Z,0
2023-02-12T00:55:28.385Z,0
2023-02-12T00:56:44.688Z,0
2023-02-12T00:58:00.988Z,0
2023-02-12T00:59:17.283Z,0
2023-02-12T01:00:33.562Z,0
2023-02-12T01:01:49.858Z,0
2023-02-12T01:03:06.152Z,0
2023-02-12T01:04:22.442Z,0
2023-02-12T01:05:38.738Z,0
2023-02-12T01:06:55.041Z,0
2023-02-12T01:08:10.341Z,0
2023-02-12T01:09:26.648Z,0
2023-02-12T01:10:42.946Z,0
2023-02-12T01:11:59.226Z,0
2023-02-12T01:13:15.520Z,0
2023-02-12T01:14:31.815Z,0
2023-02-12T01:15:48.123Z,0
2023-02-12T01:17:04.408Z,0
2023-02-12T01:18:20.703Z,0
2023-02-12T01:19:37.007Z,0
2023-02-12T01:20:53.287Z,0
2023-02-12T01:22:09.582Z,0
2023-02-12T01:23:25.875Z,0
2023-02-12T01:24:41.196Z,0
2023-02-12T01:25:57.482Z,0
2023-02-12T01:27:13.770Z,0
2023-02-12T01:28:30.064Z,0
2023-02-12T01:29:46.374Z,0
2023-02-12T01:31:02.667Z,0
2023-02-12T01:32:18.954Z,0
2023-02-12T01:33:35.247Z,0
2023-02-12T01:34:51.544Z,0
2023-02-12T01:36:07.841Z,0
2023-02-12T01:37:24.134Z,0
2023-02-12T01:38:40.438Z,0
2023-02-12T01:39:56.716Z,0
2023-02-12T01:41:12.032Z,0
2023-02-12T01:42:28.324Z,0
2023-02-12T01:43:44.617Z,0
2023-02-12T01:45:00.915Z,0
2023-02-12T01:46:17.222Z,0
2023-02-12T01:47:33.499Z,0
2023-02-12T01:48:49.795Z,0
2023-02-12T01:50:06.092Z,0
2023-02-12T01:51:22.387Z,0
2023-02-12T01:52:38.692Z,0
2023-02-12T01:53:54.972Z,0
2023-02-12T01:55:11.271Z,0
2023-02-12T01:56:27.563Z,0
2023-02-12T01:57:42.873Z,0
2023-02-12T01:58:59.171Z,0
2023-02-12T02:00:15.459Z,0
2023-02-12T02:01:31.755Z,0
2023-02-12T02:02:48.044Z,0
2023-02-12T02:04:04.346Z,0
2023-02-12T02:05:20.637Z,0
2023-02-12T02:06:36.941Z,0
2023-02-12T02:07:53.229Z,0
2023-02-12T02:09:09.527Z,0
2023-02-12T02:10:25.823Z,0
2023-02-12T02:11:42.103Z,0
2023-02-12T02:12:58.405Z,0
2023-02-12T02:14:13.713Z,0
2023-02-12T02:15:30.012Z,0
2023-02-12T02:16:46.298Z,0
2023-02-12T02:18:02.595Z,0
2023-02-12T02:19:18.888Z,0
2023-02-12T02:20:35.184Z,0
2023-02-12T02:21:51.471Z,0
2023-02-12T02:23:07.773Z,0
2023-02-12T02:24:24.066Z,0
2023-02-12T02:25:40.360Z,0
2023-02-12T02:26:56.000Z,0
2023-02-12T02:28:12.947Z,0
2023-02-12T02:29:29.247Z,0
2023-02-12T02:30:44.559Z,0
2023-02-12T02:32:00.851Z,0
2023-02-12T02:33:17.154Z,0
2023-02-12T02:34:33.435Z,0
2023-02-12T02:35:49.729Z,0
2023-02-12T02:37:06.019Z,0
2023-02-12T02:38:22.317Z,0
2023-02-12T02:39:38.621Z,0
2023-02-12T02:40:54.910Z,0
2023-02-12T02:42:11.206Z,0
2023-02-12T02:43:27.504Z,0
2023-02-12T02:44:43.792Z,0
2023-02-12T02:46:00.091Z,0
2023-02-12T02:47:15.398Z,0
2023-02-12T02:48:31.694Z,0
2023-02-12T02:49:47.981Z,0
2023-02-12T02:51:04.286Z,0
2023-02-12T02:52:20.568Z,0
2023-02-12T02:53:36.863Z,0
2023-02-12T02:54:53.159Z,0
2023-02-12T02:56:09.456Z,0
2023-02-12T02:57:25.747Z,0
2023-02-12T02:58:42.048Z,0
2023-02-12T02:59:58.348Z,0
2023-02-12T03:01:14.632Z,0
2023-02-12T03:02:30.926Z,0
2023-02-12T03:03:46.234Z,0
2023-02-12T03:05:02.532Z,0
2023-02-12T03:06:18.828Z,0
2023-02-12T03:07:35.117Z,0
2023-02-12T03:08:51.418Z,0
2023-02-12T03:10:07.710Z,0
2023-02-12T03:11:24.000Z,0
2023-02-12T03:12:40.310Z,0
2023-02-12T03:13:56.588Z,0
2023-02-12T03:15:12.891Z,0
2023-02-12T03:16:29.185Z,0
2023-02-12T03:17:45.470Z,0
2023-02-12T03:19:01.765Z,0
2023-02-12T03:20:17.083Z,0
2023-02-12T03:21:33.387Z,0
2023-02-12T03:22:49.664Z,0
2023-02-12T03:24:05.973Z,0
2023-02-12T03:25:22.253Z,0
2023-02-12T03:26:38.550Z,0
2023-02-12T03:27:54.837Z,0
2023-02-12T03:29:11.136Z,0
2023-02-12T03:30:27.438Z,0
2023-02-12T03:31:43.721Z,0
2023-02-12T03:33:00.025Z,0
2023-02-12T03:34:16.325Z,0
2023-02-12T03:35:32.621Z,0
2023-02-12T03:36:47.927Z,0
2023-02-12T03:38:04.213Z,0
2023-02-12T03:39:20.506Z,0
2023-02-12T03:40:36.818Z,0
2023-02-12T03:41:53.100Z,0
2023-02-12T03:43:09.390Z,0
2023-02-12T03:44:25.693Z,0
2023-02-12T03:45:41.988Z,0
2023-02-12T03:46:58.267Z,0
2023-02-12T03:48:14.574Z,0
2023-02-12T03:49:30.863Z,0
2023-02-12T03:50:47.158Z,0
2023-02-12T03:52:03.457Z,0
2023-02-12T03:53:18.770Z,0
2023-02-12T03:54:35.052Z,0
2023-02-12T03:55:51.348Z,0
2023-02-12T03:57:07.648Z,0
2023-02-12T03:58:23.938Z,0
2023-02-12T03:59:40.231Z,0
2023-02-12T04:00:56.524Z,0
2023-02-12T04:02:12.822Z,0
2023-02-12T04:03:29.116Z,0
2023-02-12T04:04:45.407Z,0
2023-02-12T04:06:01.719Z,0
2023-02-12T04:07:18.010Z,0
2023-02-12T04:08:34.290Z,0
2023-02-12T04:09:49.604Z,0
2023-02-12T04:11:05.894Z,0
2023-02-12T04:12:22.189Z,0
2023-02-12T04:13:38.485Z,0
2023-02-12T04:14:54.778Z,0
2023-02-12T04:17:27.370Z,0
2023-02-12T04:18:42.688Z,0
2023-02-12T04:19:58.971Z,0
2023-02-12T04:21:15.283Z,0
2023-02-12T04:22:31.568Z,0
2023-02-12T04:23:47.854Z,0
2023-02-12T04:25:04.159Z,0
2023-02-12T04:26:20.460Z,0
2023-02-12T04:27:36.746Z,0
2023-02-12T04:28:53.039Z,0
2023-02-12T04:30:09.338Z,0
2023-02-12T04:31:25.632Z,0
2023-02-12T04:32:41.916Z,0
2023-02-12T04:33:58.215Z,0
2023-02-12T04:35:13.540Z,0
2023-02-12T04:36:29.816Z,0
2023-02-12T04:37:46.116Z,0
2023-02-12T04:39:02.409Z,0
2023-02-12T04:40:18.704Z,0
2023-02-12T04:41:34.998Z,0
2023-02-12T04:42:51.291Z,0
2023-02-12T04:44:07.581Z,0
2023-02-12T04:45:23.894Z,0
2023-02-12T04:46:40.171Z,0
2023-02-12T04:47:56.471Z,0
2023-02-12T04:49:12.762Z,0
2023-02-12T04:50:29.061Z,0
2023-02-12T04:51:44.377Z,0
2023-02-12T04:53:00.662Z,0
2023-02-12T04:54:16.956Z,0
2023-02-12T04:55:33.250Z,0
2023-02-12T04:56:49.553Z,0
2023-02-12T04:58:05.846Z,0
2023-02-12T04:59:22.137Z,0
2023-02-12T05:00:38.426Z,0
2023-02-12T05:01:54.721Z,0
2023-02-12T05:03:11.020Z,0
2023-02-12T05:04:27.311Z,0
2023-02-12T05:05:43.603Z,0
2023-02-12T05:06:59.897Z,0
2023-02-12T05:08:15.215Z,0
2023-02-12T05:09:31.502Z,0
2023-02-12T05:10:47.803Z,0
2023-02-12T05:12:04.100Z,0
2023-02-12T05:13:20.398Z,0
2023-02-12T05:14:36.677Z,0
2023-02-12T05:15:52.979Z,0
2023-02-12T05:17:09.274Z,0
2023-02-12T05:18:25.578Z,0
2023-02-12T05:19:41.874Z,0
2023-02-12T05:20:58.159Z,0
2023-02-12T05:22:14.442Z,0
2023-02-12T05:23:30.739Z,0
2023-02-12T05:24:46.052Z,0
2023-02-12T05:26:02.352Z,0
2023-02-12T05:27:18.649Z,0
2023-02-12T05:28:34.939Z,0
2023-02-12T05:29:51.237Z,0
2023-02-12T05:31:07.519Z,0
2023-02-12T05:32:23.821Z,0
2023-02-12T05:33:40.119Z,0
2023-02-12T05:34:56.408Z,0
2023-02-12T05:36:12.700Z,0
2023-02-12T05:37:28.997Z,0
2023-02-12T05:38:45.300Z,0
2023-02-12T05:40:01.589Z,0
2023-02-12T05:41:16.897Z,0
2023-02-12T05:42:33.187Z,0
2023-02-12T05:43:49.489Z,0
2023-02-12T05:45:05.789Z,0
2023-02-12T05:46:22.066Z,0
2023-02-12T05:47:38.360Z,0
2023-02-12T05:48:54.668Z,0
2023-02-12T05:50:10.950Z,0
2023-02-12T05:51:27.259Z,0
2023-02-12T05:52:43.539Z,0
2023-02-12T05:53:59.839Z,0
2023-02-12T05:55:16.131Z,0
2023-02-12T05:56:32.435Z,0
2023-02-12T05:57:47.683Z,0
2023-02-12T05:59:03.987Z,0
2023-02-12T06:00:20.267Z,0
2023-02-12T06:01:36.563Z,0
2023-02-12T06:02:52.812Z,0
2023-02-12T06:04:09.065Z,0
2023-02-12T06:05:25.350Z,0
2023-02-12T06:06:41.651Z,0
2023-02-12T06:07:57.937Z,0
2023-02-12T06:09:14.247Z,0
2023-02-12T06:10:30.483Z,0
2023-02-12T06:11:46.789Z,0
2023-02-12T06:13:03.041Z,0
2023-02-12T06:14:18.292Z,0
2023-02-12T06:15:34.536Z,0
2023-02-12T06:16:50.777Z,0
2023-02-12T06:18:07.020Z,0
2023-02-12T06:19:23.253Z,0
2023-02-12T06:20:39.496Z,0
2023-02-12T06:21:55.730Z,0
2023-02-12T06:23:11.976Z,0
2023-02-12T06:24:28.215Z,0
2023-02-12T06:25:44.457Z,0
2023-02-12T06:27:00.700Z,0
2023-02-12T06:28:16.935Z,0
2023-02-12T06:29:33.177Z,0
2023-02-12T06:30:48.435Z,0
2023-02-12T06:32:04.682Z,0
2023-02-12T06:33:20.906Z,0
2023-02-12T06:34:37.164Z,0
2023-02-12T06:35:53.395Z,0
2023-02-12T06:37:09.640Z,0
2023-02-12T06:38:25.879Z,0
2023-02-12T06:39:42.120Z,0
2023-02-12T06:40:58.362Z,0
2023-02-12T06:42:14.598Z,0
2023-02-12T06:43:30.835Z,0
2023-02-12T06:44:47.092Z,0
2023-02-12T06:46:03.326Z,0
2023-02-12T06:47:18.565Z,0
2023-02-12T06:48:34.803Z,0
2023-02-12T06:49:51.054Z,0
2023-02-12T06:51:07.293Z,0
2023-02-12T06:52:23.537Z,0
2023-02-12T06:53:39.779Z,0
2023-02-12T06:54:56.031Z,0
2023-02-12T06:56:12.261Z,0
2023-02-12T06:57:28.496Z,0
2023-02-12T06:58:44.729Z,0
2023-02-12T07:00:00.978Z,0
2023-02-12T07:01:17.224Z,0
2023-02-12T07:02:33.455Z,0
2023-02-12T07:03:48.723Z,0
2023-02-12T07:05:04.950Z,0
2023-02-12T07:06:21.197Z,0
2023-02-12T07:07:37.441Z,0
2023-02-12T07:08:53.683Z,0
2023-02-12T07:10:09.920Z,0
2023-02-12T07:11:26.158Z,0
2023-02-12T07:12:42.413Z,0
2023-02-12T07:13:58.639Z,0
2023-02-12T07:15:14.876Z,0
2023-02-12T07:16:31.121Z,5
2023-02-12T07:17:47.362Z,5
2023-02-12T07:19:03.589Z,5
2023-02-12T07:20:18.858Z,5
2023-02-12T07:21:35.086Z,5
2023-02-12T07:22:51.338Z,5
2023-02-12T07:24:07.578Z,5
2023-02-12T07:25:23.809Z,5
2023-02-12T07:26:40.047Z,5
2023-02-12T07:27:56.294Z,5
2023-02-12T07:29:12.553Z,5
2023-02-12T07:30:28.776Z,11
2023-02-12T07:31:45.019Z,11
2023-02-12T07:33:01.249Z,16
2023-02-12T07:34:17.498Z,16
2023-02-12T07:35:33.731Z,16
2023-02-12T07:36:48.985Z,16
2023-02-12T07:38:05.225Z,16
2023-02-12T07:39:21.472Z,16
2023-02-12T07:40:37.724Z,16
2023-02-12T07:41:53.959Z,16
2023-02-12T07:43:10.192Z,16
2023-02-12T07:44:26.428Z,16
2023-02-12T07:45:42.668Z,16
2023-02-12T07:46:58.926Z,22
2023-02-12T07:48:15.150Z,22
2023-02-12T07:49:31.388Z,22
2023-02-12T07:50:47.640Z,22
2023-02-12T07:52:03.877Z,28
2023-02-12T07:53:19.129Z,28
2023-02-12T07:54:35.373Z,28
2023-02-12T07:55:51.621Z,28
2023-02-12T07:57:07.847Z,28
2023-02-12T07:58:24.095Z,28
2023-02-12T07:59:40.325Z,28
2023-02-12T08:00:56.575Z,28
2023-02-12T08:02:12.821Z,28
2023-02-12T08:03:29.070Z,28
2023-02-12T08:04:45.304Z,22
2023-02-12T08:06:01.528Z,22
2023-02-12T08:07:17.778Z,22
2023-02-12T08:08:34.022Z,22
2023-02-12T08:09:49.272Z,22
2023-02-12T08:11:05.512Z,22
2023-02-12T08:13:38.008Z,22
2023-02-12T08:14:54.227Z,28
2023-02-12T08:16:10.477Z,28
2023-02-12T08:17:26.731Z,33
2023-02-12T08:18:42.947Z,33
2023-02-12T08:19:59.189Z,39
2023-02-12T08:21:15.435Z,39
2023-02-12T08:22:31.671Z,45
2023-02-12T08:23:47.915Z,45
2023-02-12T08:25:04.159Z,45
2023-02-12T08:26:19.413Z,50
2023-02-12T08:27:35.645Z,50
2023-02-12T08:28:51.894Z,56
2023-02-12T08:30:08.136Z,56
2023-02-12T08:31:24.375Z,56
2023-02-12T08:32:40.607Z,50
2023-02-12T08:33:55.880Z,45
2023-02-12T08:35:12.119Z,39
2023-02-12T08:36:28.362Z,39
2023-02-12T08:37:44.589Z,39
2023-02-12T08:39:00.846Z,33
2023-02-12T08:40:17.079Z,33
2023-02-12T08:41:33.334Z,39
2023-02-12T08:42:49.563Z,39
2023-02-12T08:44:05.810Z,45
2023-02-12T08:45:22.053Z,45
2023-02-12T08:46:38.293Z,45
2023-02-12T08:47:54.511Z,45
2023-02-12T08:49:10.753Z,45
2023-02-12T08:50:26.023Z,45
2023-02-12T08:51:42.262Z,45
2023-02-12T08:52:58.504Z,39
2023-02-12T08:54:14.728Z,39
2023-02-12T08:55:30.981Z,33
2023-02-12T08:56:47.222Z,33
2023-02-12T08:58:03.465Z,33
2023-02-12T08:59:19.704Z,39
2023-02-12T09:00:35.947Z,39
2023-02-12T09:01:52.189Z,39
2023-02-12T09:03:08.427Z,39
2023-02-12T09:04:24.664Z,39
2023-02-12T09:05:40.915Z,45
2023-02-12T09:06:56.159Z,45
2023-02-12T09:08:12.389Z,45
2023-02-12T09:09:28.637Z,50
2023-02-12T09:10:44.885Z,61
2023-02-12T09:12:01.122Z,61
2023-02-12T09:13:17.364Z,61
2023-02-12T09:14:33.589Z,61
2023-02-12T09:15:49.842Z,61
2023-02-12T09:17:06.070Z,61
2023-02-12T09:18:22.328Z,56
2023-02-12T09:19:38.564Z,56
2023-02-12T09:20:54.794Z,61
2023-02-12T09:22:11.041Z,73
2023-02-12T09:23:26.301Z,73
2023-02-12T09:24:42.534Z,78
2023-02-12T09:25:58.780Z,78
2023-02-12T09:27:15.013Z,73
2023-02-12T09:28:31.247Z,78
2023-02-12T09:29:47.496Z,78
2023-02-12T09:31:03.746Z,78
2023-02-12T09:32:19.966Z,73
2023-02-12T09:33:36.212Z,73
2023-02-12T09:34:52.454Z,73
2023-02-12T09:36:08.710Z,73
2023-02-12T09:37:24.928Z,78
2023-02-12T09:38:41.172Z,78
2023-02-12T09:39:56.428Z,84
2023-02-12T09:41:12.669Z,95
2023-02-12T09:42:28.905Z,95
2023-02-12T09:43:45.164Z,101
2023-02-12T09:45:01.408Z,84
2023-02-12T09:46:17.645Z,84
2023-02-12T09:47:33.874Z,78
2023-02-12T09:48:50.114Z,73
2023-02-12T09:50:06.345Z,73
2023-02-12T09:51:22.586Z,73
2023-02-12T09:52:38.845Z,78
2023-02-12T09:53:55.074Z,84
2023-02-12T09:55:11.325Z,78
2023-02-12T09:56:26.577Z,73
2023-02-12T09:57:42.805Z,67
2023-02-12T09:58:59.044Z,61
2023-02-12T10:00:15.300Z,50
2023-02-12T10:01:31.524Z,50
2023-02-12T10:02:47.770Z,45
2023-02-12T10:04:04.015Z,50
2023-02-12T10:05:20.259Z,50
2023-02-12T10:06:36.485Z,56
2023-02-12T10:07:52.739Z,67
2023-02-12T10:09:08.979Z,73
2023-02-12T10:10:25.227Z,90
2023-02-12T10:11:41.445Z,101
2023-02-12T10:12:56.717Z,95
2023-02-12T10:14:12.947Z,90
2023-02-12T10:15:29.181Z,73
2023-02-12T10:16:45.434Z,78
2023-02-12T10:18:01.682Z,84
2023-02-12T10:19:17.903Z,90
2023-02-12T10:20:34.151Z,95
2023-02-12T10:21:50.394Z,140
2023-02-12T10:23:06.625Z,191
2023-02-12T10:24:22.884Z,196
2023-02-12T10:25:39.105Z,174
2023-02-12T10:26:55.349Z,157
2023-02-12T10:28:11.583Z,135
2023-02-12T10:29:26.839Z,112
2023-02-12T10:30:43.104Z,95
2023-02-12T10:31:59.346Z,84
2023-02-12T10:33:15.578Z,78
2023-02-12T10:34:31.816Z,61
2023-02-12T10:35:48.060Z,56
2023-02-12T10:37:04.283Z,56
2023-02-12T10:38:20.532Z,45
2023-02-12T10:39:36.776Z,45
2023-02-12T10:40:53.004Z,61
2023-02-12T10:42:09.264Z,73
2023-02-12T10:43:25.485Z,78
2023-02-12T10:44:41.742Z,73
2023-02-12T10:45:56.996Z,67
2023-02-12T10:47:13.237Z,78
2023-02-12T10:48:29.460Z,78
2023-02-12T10:49:45.708Z,78
2023-02-12T10:51:01.971Z,90
2023-02-12T10:52:18.184Z,101
2023-02-12T10:53:34.429Z,101
2023-02-12T10:54:50.684Z,90
2023-02-12T10:56:06.901Z,101
2023-02-12T10:57:23.148Z,106
2023-02-12T10:58:39.405Z,101
2023-02-12T10:59:55.632Z,95
2023-02-12T11:01:11.872Z,90
2023-02-12T11:02:27.125Z,95
2023-02-12T11:03:43.387Z,106
2023-02-12T11:04:59.645Z,101
2023-02-12T11:06:15.871Z,106
2023-02-12T11:07:32.081Z,101
2023-02-12T11:08:48.350Z,101
2023-02-12T11:10:04.560Z,90
2023-02-12T11:11:20.833Z,78
2023-02-12T11:12:37.075Z,84
2023-02-12T11:13:53.283Z,84
2023-02-12T11:15:09.524Z,73
2023-02-12T11:16:25.762Z,67
2023-02-12T11:17:42.038Z,61
2023-02-12T11:18:57.256Z,61
2023-02-12T11:20:13.532Z,67
2023-02-12T11:21:29.769Z,61
2023-02-12T11:22:45.996Z,61
2023-02-12T11:24:02.216Z,67
2023-02-12T11:25:18.462Z,78
2023-02-12T11:26:34.739Z,90
2023-02-12T11:27:50.977Z,106
2023-02-12T11:29:07.224Z,118
2023-02-12T11:30:23.430Z,118
2023-02-12T11:31:39.708Z,112
2023-02-12T11:32:55.897Z,106
2023-02-12T11:34:12.149Z,101
2023-02-12T11:35:27.394Z,90
2023-02-12T11:36:43.692Z,67
2023-02-12T11:37:59.881Z,56
2023-02-12T11:39:16.161Z,61
2023-02-12T11:40:32.359Z,67
2023-02-12T11:41:48.613Z,78
2023-02-12T11:43:04.839Z,78
2023-02-12T11:44:21.123Z,73
2023-02-12T11:45:37.372Z,61
2023-02-12T11:46:53.605Z,56
2023-02-12T11:48:09.843Z,61
2023-02-12T11:49:26.088Z,67
2023-02-12T11:50:42.278Z,61
2023-02-12T11:51:57.534Z,61
2023-02-12T11:54:30.016Z,67
2023-02-12T11:55:46.255Z,67
2023-02-12T11:57:02.546Z,67
2023-02-12T11:58:18.752Z,67
2023-02-12T11:59:34.974Z,73
2023-02-12T12:00:51.285Z,84
2023-02-12T12:02:07.507Z,95
2023-02-12T12:03:23.751Z,101
2023-02-12T12:04:39.988Z,95
2023-02-12T12:05:56.183Z,90
2023-02-12T12:07:12.477Z,90
2023-02-12T12:08:27.730Z,90
2023-02-12T12:09:43.914Z,90
2023-02-12T12:11:00.154Z,90
2023-02-12T12:12:16.447Z,90
2023-02-12T12:13:32.686Z,90
2023-02-12T12:14:48.878Z,112
2023-02-12T12:16:05.173Z,140
2023-02-12T12:17:21.363Z,151
2023-02-12T12:18:37.592Z,157
2023-02-12T12:19:53.901Z,146
2023-02-12T12:21:10.126Z,140
2023-02-12T12:22:26.321Z,129
2023-02-12T12:23:42.608Z,112
2023-02-12T12:24:57.821Z,112
2023-02-12T12:26:14.115Z,118
2023-02-12T12:27:30.296Z,112
2023-02-12T12:28:46.582Z,101
2023-02-12T12:30:02.832Z,95
2023-02-12T12:31:19.024Z,78
2023-02-12T12:32:35.315Z,61
2023-02-12T12:33:51.549Z,45
2023-02-12T12:35:07.793Z,39
2023-02-12T12:37:40.272Z,33
2023-02-12T12:38:56.467Z,28
2023-02-12T12:40:12.706Z,28
2023-02-12T12:41:27.953Z,33
2023-02-12T12:42:44.250Z,33
2023-02-12T12:44:00.428Z,39
2023-02-12T12:45:16.724Z,39
2023-02-12T12:46:32.921Z,39
2023-02-12T12:47:49.163Z,45
2023-02-12T12:49:04.413Z,45
2023-02-12T12:50:20.647Z,45
2023-02-12T12:51:36.960Z,50
2023-02-12T12:52:53.193Z,56
2023-02-12T12:54:09.374Z,56
2023-02-12T12:55:25.615Z,56
2023-02-12T12:56:41.910Z,61
2023-02-12T12:57:58.148Z,61
2023-02-12T12:59:14.330Z,67
2023-02-12T13:00:30.625Z,67
2023-02-12T13:01:46.815Z,56
2023-02-12T13:03:03.105Z,50
2023-02-12T13:04:19.350Z,45
2023-02-12T13:05:34.619Z,45
2023-02-12T13:06:50.850Z,50
2023-02-12T13:08:07.098Z,50
2023-02-12T13:09:23.280Z,45
2023-02-12T13:10:39.524Z,50
2023-02-12T13:11:55.758Z,50
2023-02-12T13:13:11.990Z,50
2023-02-12T13:14:28.236Z,45
2023-02-12T13:15:44.534Z,50
2023-02-12T13:17:00.716Z,56
2023-02-12T13:18:17.007Z,56
2023-02-12T13:19:33.197Z,50
2023-02-12T13:20:49.433Z,45
2023-02-12T13:22:04.701Z,45
2023-02-12T13:23:20.933Z,39
2023-02-12T13:24:37.168Z,39
2023-02-12T13:25:53.466Z,45
2023-02-12T13:27:09.647Z,50
2023-02-12T13:28:25.893Z,50
2023-02-12T13:29:42.132Z,50
2023-02-12T13:30:58.375Z,50
2023-02-12T13:32:14.623Z,50
2023-02-12T13:33:30.853Z,50
2023-02-12T13:34:47.094Z,56
2023-02-12T13:36:03.327Z,56
2023-02-12T13:37:19.630Z,56
2023-02-12T13:38:34.844Z,50
2023-02-12T13:39:51.083Z,45
2023-02-12T13:41:07.314Z,39
2023-02-12T13:42:23.603Z,39
2023-02-12T13:43:39.847Z,33
2023-02-12T13:44:56.027Z,33
2023-02-12T13:46:12.276Z,33
2023-02-12T13:47:28.521Z,39
2023-02-12T13:48:44.748Z,50
2023-02-12T13:50:01.050Z,56
2023-02-12T13:51:17.287Z,67
2023-02-12T13:52:33.476Z,61
2023-02-12T13:53:49.707Z,67
2023-02-12T13:55:04.968Z,67
2023-02-12T13:56:21.264Z,67
2023-02-12T13:57:37.454Z,67
2023-02-12T13:58:53.740Z,61
2023-02-12T14:00:09.933Z,50
2023-02-12T14:01:26.225Z,45
2023-02-12T14:02:42.418Z,39
2023-02-12T14:03:58.713Z,39
2023-02-12T14:05:14.887Z,50
2023-02-12T14:06:31.184Z,50
2023-02-12T14:07:47.000Z,45
2023-02-12T14:09:03.620Z,39
2023-02-12T14:10:19.856Z,33
2023-02-12T14:11:35.118Z,28
2023-02-12T14:12:51.408Z,28
2023-02-12T14:14:07.587Z,33
2023-02-12T14:16:40.071Z,39
2023-02-12T14:17:56.311Z,33
2023-02-12T14:19:12.600Z,33
2023-02-12T14:20:28.848Z,33
2023-02-12T14:21:45.036Z,39
2023-02-12T14:23:01.340Z,33
2023-02-12T14:24:17.507Z,33
2023-02-12T14:25:33.759Z,28
2023-02-12T14:26:49.991Z,28
2023-02-12T14:28:05.297Z,28
2023-02-12T14:29:21.484Z,22
2023-02-12T14:30:37.725Z,22
2023-02-12T14:31:53.965Z,22
2023-02-12T14:33:10.208Z,22
2023-02-12T14:34:26.447Z,22
2023-02-12T14:35:42.739Z,28
2023-02-12T14:36:58.923Z,28
2023-02-12T14:38:15.163Z,28
2023-02-12T14:39:31.420Z,22
2023-02-12T14:40:47.663Z,22
2023-02-12T14:42:03.888Z,22
2023-02-12T14:43:20.179Z,16
2023-02-12T14:44:35.381Z,16
2023-02-12T14:45:51.629Z,16
2023-02-12T14:47:07.877Z,22
2023-02-12T14:48:24.105Z,22
2023-02-12T14:49:40.357Z,16
2023-02-12T14:50:56.593Z,16
2023-02-12T14:52:12.827Z,16
2023-02-12T14:53:29.063Z,16
2023-02-12T14:54:45.357Z,22
2023-02-12T14:56:01.558Z,22
2023-02-12T14:57:17.836Z,22
2023-02-12T14:58:34.022Z,22
2023-02-12T14:59:50.324Z,22
2023-02-12T15:01:05.516Z,22
2023-02-12T15:02:21.765Z,22
2023-02-12T15:03:38.007Z,22
2023-02-12T15:04:54.247Z,16
2023-02-12T15:06:10.476Z,16
2023-02-12T15:07:26.720Z,16
2023-02-12T15:08:42.962Z,16
2023-02-12T15:09:59.257Z,11
2023-02-12T15:11:15.450Z,11
2023-02-12T15:12:31.740Z,11
2023-02-12T15:13:47.988Z,11
2023-02-12T15:15:04.162Z,11
2023-02-12T15:16:20.407Z,11
2023-02-12T15:17:35.655Z,11
2023-02-12T15:18:51.967Z,11
2023-02-12T15:20:08.194Z,16
2023-02-12T15:21:24.378Z,16
2023-02-12T15:22:40.621Z,11
2023-02-12T15:23:56.917Z,11
2023-02-12T15:25:13.099Z,11
2023-02-12T15:26:29.340Z,11
2023-02-12T15:27:45.579Z,11
2023-02-12T15:29:01.884Z,11
2023-02-12T15:30:18.115Z,11
2023-02-12T15:31:34.358Z,11
2023-02-12T15:32:50.547Z,11
2023-02-12T15:34:05.801Z,11
2023-02-12T15:35:22.094Z,11
2023-02-12T15:36:38.291Z,11
2023-02-12T15:37:54.581Z,5
2023-02-12T15:39:10.772Z,5
2023-02-12T15:40:27.007Z,5
2023-02-12T15:41:43.247Z,5
2023-02-12T15:42:59.478Z,5
2023-02-12T15:44:15.722Z,5
2023-02-12T15:45:31.960Z,5
2023-02-12T15:46:48.257Z,5
2023-02-12T15:48:04.440Z,5
2023-02-12T15:49:20.684Z,5
2023-02-12T15:50:35.935Z,0
2023-02-12T15:51:52.232Z,0
2023-02-12T15:53:08.476Z,0
2023-02-12T15:54:24.712Z,0
2023-02-12T15:55:40.952Z,0
2023-02-12T15:56:57.134Z,0
2023-02-12T15:58:13.439Z,0
2023-02-12T15:59:29.616Z,0
2023-02-12T16:00:45.921Z,0
2023-02-12T16:02:02.105Z,0
2023-02-12T16:03:18.347Z,0
2023-02-12T16:04:34.590Z,0
2023-02-12T16:05:50.828Z,0
2023-02-12T16:07:06.074Z,0
2023-02-12T16:08:22.316Z,0
2023-02-12T16:09:38.618Z,0
2023-02-12T16:10:54.809Z,0
2023-02-12T16:12:11.048Z,0
2023-02-12T16:13:27.334Z,0
2023-02-12T16:14:43.517Z,0
2023-02-12T16:15:59.769Z,0
2023-02-12T16:17:16.009Z,0
2023-02-12T16:18:32.234Z,0
2023-02-12T16:19:48.474Z,0
2023-02-12T16:21:04.774Z,0
2023-02-12T16:22:21.022Z,0
2023-02-12T16:23:36.274Z,0
2023-02-12T16:24:52.529Z,0
2023-02-12T16:26:08.756Z,0
2023-02-12T16:27:24.948Z,0
2023-02-12T16:28:41.236Z,0
2023-02-12T16:29:57.431Z,0
2023-02-12T16:31:13.714Z,0
2023-02-12T16:32:29.900Z,0
2023-02-12T16:33:46.140Z,0
2023-02-12T16:35:02.392Z,0
2023-02-12T16:36:18.633Z,0
2023-02-12T16:37:34.859Z,0
2023-02-12T16:38:51.155Z,0
2023-02-12T16:40:06.413Z,0
2023-02-12T16:41:22.650Z,0
2023-02-12T16:42:38.832Z,0
2023-02-12T16:43:55.079Z,0
2023-02-12T16:45:11.330Z,0
2023-02-12T16:46:27.568Z,0
2023-02-12T16:47:43.861Z,0
2023-02-12T16:49:00.145Z,0
2023-02-12T16:50:16.458Z,0
2023-02-12T16:51:32.749Z,0
2023-02-12T16:52:49.004Z,0
2023-02-12T16:54:05.230Z,0
2023-02-12T16:55:21.582Z,0
2023-02-12T16:56:36.898Z,0
2023-02-12T16:57:53.124Z,0
2023-02-12T16:59:09.424Z,0
2023-02-12T17:00:25.716Z,0
2023-02-12T17:01:42.007Z,0
2023-02-12T17:02:58.311Z,0
2023-02-12T17:04:13.683Z,0
2023-02-12T17:05:29.973Z,0
2023-02-12T17:06:46.269Z,0
2023-02-12T17:08:02.507Z,0
2023-02-12T17:09:18.800Z,0
2023-02-12T17:10:35.095Z,0
2023-02-12T17:11:51.384Z,0
2023-02-12T17:13:07.687Z,0
2023-02-12T17:14:24.039Z,0
2023-02-12T17:15:40.281Z,0
2023-02-12T17:16:56.562Z,0
2023-02-12T17:18:12.852Z,0
2023-02-12T17:19:29.148Z,0
2023-02-12T17:20:44.474Z,0
2023-02-12T17:22:00.768Z,0
2023-02-12T17:23:17.052Z,0
2023-02-12T17:24:33.355Z,0
2023-02-12T17:25:49.643Z,0
2023-02-12T17:27:05.991Z,0
2023-02-12T17:28:22.224Z,0
2023-02-12T17:29:38.581Z,0
2023-02-12T17:30:54.871Z,0
2023-02-12T17:32:11.111Z,0
2023-02-12T17:33:27.412Z,0
2023-02-12T17:34:43.697Z,0
2023-02-12T17:36:00.006Z,0
2023-02-12T17:37:15.000Z,0
2023-02-12T17:38:31.609Z,0
2023-02-12T17:39:47.961Z,0
2023-02-12T17:41:04.183Z,0
2023-02-12T17:42:20.487Z,0
2023-02-12T17:43:36.781Z,0
2023-02-12T17:44:53.129Z,0
2023-02-12T17:46:09.421Z,0
2023-02-12T17:47:25.664Z,0
2023-02-12T17:48:41.962Z,0
2023-02-12T17:49:58.317Z,0
2023-02-12T17:51:14.554Z,0
2023-02-12T17:52:30.835Z,0
2023-02-12T17:53:46.152Z,0
2023-02-12T17:55:02.449Z,0
2023-02-12T17:56:18.742Z,0
2023-02-12T17:57:35.037Z,0
2023-02-12T18:00:07.685Z,0
2023-02-12T18:01:23.913Z,0
2023-02-12T18:02:40.205Z,0
2023-02-12T18:03:56.495Z,0
2023-02-12T18:05:12.792Z,0
2023-02-12T18:06:29.094Z,0
2023-02-12T18:07:45.390Z,0
2023-02-12T18:09:01.686Z,0
2023-02-12T18:10:16.993Z,0
2023-02-12T18:11:33.287Z,0
2023-02-12T18:12:49.572Z,0
2023-02-12T18:14:05.880Z,0
2023-02-12T18:15:22.165Z,0
2023-02-12T18:16:38.000Z,0
2023-02-12T18:17:54.752Z,0
2023-02-12T18:19:11.061Z,0
2023-02-12T18:20:27.343Z,0
2023-02-12T18:21:43.639Z,0
2023-02-12T18:22:59.936Z,0
2023-02-12T18:24:16.224Z,0
2023-02-12T18:25:32.517Z,0
2023-02-12T18:26:47.834Z,0
2023-02-12T18:28:04.128Z,0
2023-02-12T18:29:20.413Z,0
2023-02-12T18:30:36.707Z,0
2023-02-12T18:31:53.002Z,0
2023-02-12T18:33:09.302Z,0
2023-02-12T18:34:25.605Z,0